sensor_id;sensor_type;location;lat;lon;timestamp;temperature;humidity
71801;HTU21D;59647;55.838;37.292;2023-04-25T00:01:47;14.25;30.82
71801;HTU21D;59647;55.838;37.292;2023-04-25T00:04:13;14.18;30.73
71801;HTU21D;59647;55.838;37.292;2023-04-25T00:06:39;14.12;30.70
71801;HTU21D;59647;55.838;37.292;2023-04-25T00:09:06;14.06;31.22
71801;HTU21D;59647;55.838;37.292;2023-04-25T00:11:37;13.93;32.34
71801;HTU21D;59647;55.838;37.292;2023-04-25T00:14:04;13.85;31.57
71801;HTU21D;59647;55.838;37.292;2023-04-25T00:16:30;13.82;31.47
71801;HTU21D;59647;55.838;37.292;2023-04-25T00:19:00;13.81;31.20
71801;HTU21D;59647;55.838;37.292;2023-04-25T00:21:27;13.80;32.57
71801;HTU21D;59647;55.838;37.292;2023-04-25T00:23:55;13.76;31.86
71801;HTU21D;59647;55.838;37.292;2023-04-25T00:26:21;13.70;33.03
71801;HTU21D;59647;55.838;37.292;2023-04-25T00:28:47;13.67;33.76
71801;HTU21D;59647;55.838;37.292;2023-04-25T00:31:14;13.63;32.29
71801;HTU21D;59647;55.838;37.292;2023-04-25T00:33:40;13.63;32.50
71801;HTU21D;59647;55.838;37.292;2023-04-25T00:36:07;13.60;32.39
71801;HTU21D;59647;55.838;37.292;2023-04-25T00:38:33;13.56;32.46
71801;HTU21D;59647;55.838;37.292;2023-04-25T00:40:59;13.54;32.28
71801;HTU21D;59647;55.838;37.292;2023-04-25T00:43:26;13.54;32.22
71801;HTU21D;59647;55.838;37.292;2023-04-25T00:45:53;13.51;32.86
71801;HTU21D;59647;55.838;37.292;2023-04-25T00:48:22;13.45;33.58
71801;HTU21D;59647;55.838;37.292;2023-04-25T00:50:58;13.41;33.12
71801;HTU21D;59647;55.838;37.292;2023-04-25T00:53:26;13.35;33.43
71801;HTU21D;59647;55.838;37.292;2023-04-25T00:55:53;13.27;33.92
71801;HTU21D;59647;55.838;37.292;2023-04-25T00:58:20;13.21;34.95
71801;HTU21D;59647;55.838;37.292;2023-04-25T01:00:48;13.21;33.44
71801;HTU21D;59647;55.838;37.292;2023-04-25T01:03:17;13.17;33.83
71801;HTU21D;59647;55.838;37.292;2023-04-25T01:05:45;13.14;34.03
71801;HTU21D;59647;55.838;37.292;2023-04-25T01:08:13;13.06;35.43
71801;HTU21D;59647;55.838;37.292;2023-04-25T01:10:39;13.01;36.05
71801;HTU21D;59647;55.838;37.292;2023-04-25T01:13:05;12.95;36.17
71801;HTU21D;59647;55.838;37.292;2023-04-25T01:15:31;12.92;37.39
71801;HTU21D;59647;55.838;37.292;2023-04-25T01:17:57;12.89;35.80
71801;HTU21D;59647;55.838;37.292;2023-04-25T01:20:24;12.91;34.92
71801;HTU21D;59647;55.838;37.292;2023-04-25T01:22:51;12.94;35.54
71801;HTU21D;59647;55.838;37.292;2023-04-25T01:25:18;12.94;34.98
71801;HTU21D;59647;55.838;37.292;2023-04-25T01:27:46;12.96;35.41
71801;HTU21D;59647;55.838;37.292;2023-04-25T01:30:13;12.99;35.48
71801;HTU21D;59647;55.838;37.292;2023-04-25T01:32:41;12.96;36.43
71801;HTU21D;59647;55.838;37.292;2023-04-25T01:35:09;12.97;36.71
71801;HTU21D;59647;55.838;37.292;2023-04-25T01:37:42;12.96;35.52
71801;HTU21D;59647;55.838;37.292;2023-04-25T01:40:11;12.99;35.42
71801;HTU21D;59647;55.838;37.292;2023-04-25T01:42:40;12.95;37.71
71801;HTU21D;59647;55.838;37.292;2023-04-25T01:45:07;12.92;37.40
71801;HTU21D;59647;55.838;37.292;2023-04-25T01:47:33;12.91;36.54
71801;HTU21D;59647;55.838;37.292;2023-04-25T01:50:02;12.95;36.08
71801;HTU21D;59647;55.838;37.292;2023-04-25T01:52:30;12.95;35.78
71801;HTU21D;59647;55.838;37.292;2023-04-25T01:54:57;13.00;36.00
71801;HTU21D;59647;55.838;37.292;2023-04-25T01:57:29;12.99;38.10
71801;HTU21D;59647;55.838;37.292;2023-04-25T01:59:59;12.96;39.62
71801;HTU21D;59647;55.838;37.292;2023-04-25T02:02:38;12.94;39.61
71801;HTU21D;59647;55.838;37.292;2023-04-25T02:05:08;12.94;37.83
71801;HTU21D;59647;55.838;37.292;2023-04-25T02:07:37;12.94;39.97
71801;HTU21D;59647;55.838;37.292;2023-04-25T02:10:03;13.01;37.96
71801;HTU21D;59647;55.838;37.292;2023-04-25T02:12:35;13.06;41.23
71801;HTU21D;59647;55.838;37.292;2023-04-25T02:15:17;13.12;43.69
71801;HTU21D;59647;55.838;37.292;2023-04-25T02:18:09;13.19;40.95
71801;HTU21D;59647;55.838;37.292;2023-04-25T02:20:35;13.23;40.09
71801;HTU21D;59647;55.838;37.292;2023-04-25T02:23:02;13.24;43.93
71801;HTU21D;59647;55.838;37.292;2023-04-25T02:25:28;13.31;38.96
71801;HTU21D;59647;55.838;37.292;2023-04-25T02:27:54;13.35;39.16
71801;HTU21D;59647;55.838;37.292;2023-04-25T02:30:20;13.38;40.81
71801;HTU21D;59647;55.838;37.292;2023-04-25T02:32:46;13.43;39.52
71801;HTU21D;59647;55.838;37.292;2023-04-25T02:35:12;13.49;38.68
71801;HTU21D;59647;55.838;37.292;2023-04-25T02:37:39;13.55;38.45
71801;HTU21D;59647;55.838;37.292;2023-04-25T02:40:06;13.65;38.70
71801;HTU21D;59647;55.838;37.292;2023-04-25T02:42:32;13.71;38.31
71801;HTU21D;59647;55.838;37.292;2023-04-25T02:44:58;13.76;38.16
71801;HTU21D;59647;55.838;37.292;2023-04-25T02:47:26;13.79;39.58
71801;HTU21D;59647;55.838;37.292;2023-04-25T02:49:52;13.82;40.66
71801;HTU21D;59647;55.838;37.292;2023-04-25T02:52:18;13.85;39.90
71801;HTU21D;59647;55.838;37.292;2023-04-25T02:54:51;13.89;40.65
71801;HTU21D;59647;55.838;37.292;2023-04-25T02:57:16;13.96;38.58
71801;HTU21D;59647;55.838;37.292;2023-04-25T02:59:42;14.05;38.64
71801;HTU21D;59647;55.838;37.292;2023-04-25T03:02:09;14.11;38.59
71801;HTU21D;59647;55.838;37.292;2023-04-25T03:04:35;14.15;38.62
71801;HTU21D;59647;55.838;37.292;2023-04-25T03:07:01;14.21;40.21
71801;HTU21D;59647;55.838;37.292;2023-04-25T03:09:27;14.24;39.91
71801;HTU21D;59647;55.838;37.292;2023-04-25T03:11:53;14.28;40.83
71801;HTU21D;59647;55.838;37.292;2023-04-25T03:14:19;14.32;39.18
71801;HTU21D;59647;55.838;37.292;2023-04-25T03:16:45;14.38;39.27
71801;HTU21D;59647;55.838;37.292;2023-04-25T03:19:11;14.44;39.83
71801;HTU21D;59647;55.838;37.292;2023-04-25T03:21:37;14.48;39.85
71801;HTU21D;59647;55.838;37.292;2023-04-25T03:24:04;14.53;40.78
71801;HTU21D;59647;55.838;37.292;2023-04-25T03:26:30;14.56;42.45
71801;HTU21D;59647;55.838;37.292;2023-04-25T03:28:56;14.68;40.30
71801;HTU21D;59647;55.838;37.292;2023-04-25T03:31:22;14.79;39.98
71801;HTU21D;59647;55.838;37.292;2023-04-25T03:33:48;14.93;38.56
71801;HTU21D;59647;55.838;37.292;2023-04-25T03:36:16;15.06;38.48
71801;HTU21D;59647;55.838;37.292;2023-04-25T03:38:42;15.12;39.39
71801;HTU21D;59647;55.838;37.292;2023-04-25T03:41:08;15.18;39.49
71801;HTU21D;59647;55.838;37.292;2023-04-25T03:43:41;15.28;38.49
71801;HTU21D;59647;55.838;37.292;2023-04-25T03:46:11;15.39;38.25
71801;HTU21D;59647;55.838;37.292;2023-04-25T03:48:38;15.53;37.81
71801;HTU21D;59647;55.838;37.292;2023-04-25T03:51:04;15.61;37.85
71801;HTU21D;59647;55.838;37.292;2023-04-25T03:53:32;15.67;37.46
71801;HTU21D;59647;55.838;37.292;2023-04-25T03:56:17;15.72;38.27
71801;HTU21D;59647;55.838;37.292;2023-04-25T03:58:45;15.70;37.75
71801;HTU21D;59647;55.838;37.292;2023-04-25T04:01:13;15.71;37.96
71801;HTU21D;59647;55.838;37.292;2023-04-25T04:03:39;15.72;38.59
71801;HTU21D;59647;55.838;37.292;2023-04-25T04:06:07;15.76;38.27
71801;HTU21D;59647;55.838;37.292;2023-04-25T04:08:37;15.84;37.87
71801;HTU21D;59647;55.838;37.292;2023-04-25T04:11:03;15.83;38.56
71801;HTU21D;59647;55.838;37.292;2023-04-25T04:13:29;15.84;39.68
71801;HTU21D;59647;55.838;37.292;2023-04-25T04:15:56;16.00;38.83
71801;HTU21D;59647;55.838;37.292;2023-04-25T04:18:23;16.25;39.51
71801;HTU21D;59647;55.838;37.292;2023-04-25T04:20:49;16.49;38.67
71801;HTU21D;59647;55.838;37.292;2023-04-25T04:23:16;16.80;37.77
71801;HTU21D;59647;55.838;37.292;2023-04-25T04:25:42;17.06;37.97
71801;HTU21D;59647;55.838;37.292;2023-04-25T04:28:31;17.35;36.87
71801;HTU21D;59647;55.838;37.292;2023-04-25T04:31:01;17.60;36.42
71801;HTU21D;59647;55.838;37.292;2023-04-25T04:33:29;17.81;36.78
71801;HTU21D;59647;55.838;37.292;2023-04-25T04:36:00;17.90;36.37
71801;HTU21D;59647;55.838;37.292;2023-04-25T04:38:28;18.06;36.30
71801;HTU21D;59647;55.838;37.292;2023-04-25T04:40:58;18.15;36.30
71801;HTU21D;59647;55.838;37.292;2023-04-25T04:43:31;18.18;35.56
71801;HTU21D;59647;55.838;37.292;2023-04-25T04:46:21;18.23;35.16
71801;HTU21D;59647;55.838;37.292;2023-04-25T04:49:16;18.25;35.01
71801;HTU21D;59647;55.838;37.292;2023-04-25T04:51:53;18.35;34.96
71801;HTU21D;59647;55.838;37.292;2023-04-25T04:54:46;18.48;34.73
71801;HTU21D;59647;55.838;37.292;2023-04-25T04:57:33;18.54;34.59
71801;HTU21D;59647;55.838;37.292;2023-04-25T05:00:19;18.59;34.52
71801;HTU21D;59647;55.838;37.292;2023-04-25T05:03:06;18.70;34.63
71801;HTU21D;59647;55.838;37.292;2023-04-25T05:05:53;18.77;34.37
71801;HTU21D;59647;55.838;37.292;2023-04-25T05:08:39;18.92;34.46
71801;HTU21D;59647;55.838;37.292;2023-04-25T05:11:14;18.94;34.44
71801;HTU21D;59647;55.838;37.292;2023-04-25T05:13:56;19.00;34.41
71801;HTU21D;59647;55.838;37.292;2023-04-25T05:16:45;19.09;34.19
71801;HTU21D;59647;55.838;37.292;2023-04-25T05:19:37;19.22;34.30
71801;HTU21D;59647;55.838;37.292;2023-04-25T05:22:38;19.28;33.76
71801;HTU21D;59647;55.838;37.292;2023-04-25T05:25:20;19.37;33.86
71801;HTU21D;59647;55.838;37.292;2023-04-25T05:28:07;19.47;33.63
71801;HTU21D;59647;55.838;37.292;2023-04-25T05:30:43;19.58;33.44
71801;HTU21D;59647;55.838;37.292;2023-04-25T05:33:18;19.68;33.15
71801;HTU21D;59647;55.838;37.292;2023-04-25T05:35:46;19.75;33.19
71801;HTU21D;59647;55.838;37.292;2023-04-25T05:38:13;19.87;33.00
71801;HTU21D;59647;55.838;37.292;2023-04-25T05:40:58;20.03;32.86
71801;HTU21D;59647;55.838;37.292;2023-04-25T05:43:53;20.20;32.63
71801;HTU21D;59647;55.838;37.292;2023-04-25T05:46:23;20.37;32.37
71801;HTU21D;59647;55.838;37.292;2023-04-25T05:49:24;20.54;32.17
71801;HTU21D;59647;55.838;37.292;2023-04-25T05:52:09;20.73;32.19
71801;HTU21D;59647;55.838;37.292;2023-04-25T05:54:46;20.86;31.96
71801;HTU21D;59647;55.838;37.292;2023-04-25T05:57:26;20.95;31.22
71801;HTU21D;59647;55.838;37.292;2023-04-25T05:59:54;21.06;31.71
71801;HTU21D;59647;55.838;37.292;2023-04-25T06:02:21;21.19;31.54
71801;HTU21D;59647;55.838;37.292;2023-04-25T06:04:50;21.33;31.57
71801;HTU21D;59647;55.838;37.292;2023-04-25T06:07:16;21.42;31.21
71801;HTU21D;59647;55.838;37.292;2023-04-25T06:09:43;21.45;31.15
71801;HTU21D;59647;55.838;37.292;2023-04-25T06:12:09;21.50;30.58
71801;HTU21D;59647;55.838;37.292;2023-04-25T06:14:35;21.52;30.64
71801;HTU21D;59647;55.838;37.292;2023-04-25T06:17:02;21.62;30.71
71801;HTU21D;59647;55.838;37.292;2023-04-25T06:19:32;21.75;30.54
71801;HTU21D;59647;55.838;37.292;2023-04-25T06:21:59;21.90;30.45
71801;HTU21D;59647;55.838;37.292;2023-04-25T06:24:25;21.93;30.13
71801;HTU21D;59647;55.838;37.292;2023-04-25T06:26:51;22.02;30.16
71801;HTU21D;59647;55.838;37.292;2023-04-25T06:29:18;22.17;30.24
71801;HTU21D;59647;55.838;37.292;2023-04-25T06:31:44;22.21;29.83
71801;HTU21D;59647;55.838;37.292;2023-04-25T06:34:10;22.28;29.75
71801;HTU21D;59647;55.838;37.292;2023-04-25T06:36:39;22.46;29.62
71801;HTU21D;59647;55.838;37.292;2023-04-25T06:39:08;22.64;29.29
71801;HTU21D;59647;55.838;37.292;2023-04-25T06:41:34;22.76;28.98
71801;HTU21D;59647;55.838;37.292;2023-04-25T06:44:05;22.79;28.87
71801;HTU21D;59647;55.838;37.292;2023-04-25T06:46:39;22.84;28.61
71801;HTU21D;59647;55.838;37.292;2023-04-25T06:49:05;22.98;28.72
71801;HTU21D;59647;55.838;37.292;2023-04-25T06:51:31;23.09;27.94
71801;HTU21D;59647;55.838;37.292;2023-04-25T06:53:57;23.16;28.03
71801;HTU21D;59647;55.838;37.292;2023-04-25T06:56:37;23.27;27.59
71801;HTU21D;59647;55.838;37.292;2023-04-25T06:59:13;23.41;27.87
71801;HTU21D;59647;55.838;37.292;2023-04-25T07:01:40;23.49;27.67
71801;HTU21D;59647;55.838;37.292;2023-04-25T07:04:14;23.64;27.16
71801;HTU21D;59647;55.838;37.292;2023-04-25T07:06:45;23.82;26.29
71801;HTU21D;59647;55.838;37.292;2023-04-25T07:09:16;23.85;26.84
71801;HTU21D;59647;55.838;37.292;2023-04-25T07:11:45;23.85;26.43
71801;HTU21D;59647;55.838;37.292;2023-04-25T07:14:11;23.86;25.94
71801;HTU21D;59647;55.838;37.292;2023-04-25T07:16:37;24.08;26.59
71801;HTU21D;59647;55.838;37.292;2023-04-25T07:19:03;24.24;24.95
71801;HTU21D;59647;55.838;37.292;2023-04-25T07:21:29;24.29;23.28
71801;HTU21D;59647;55.838;37.292;2023-04-25T07:23:58;24.15;24.47
71801;HTU21D;59647;55.838;37.292;2023-04-25T07:26:30;24.17;25.14
71801;HTU21D;59647;55.838;37.292;2023-04-25T07:29:16;24.41;24.75
71801;HTU21D;59647;55.838;37.292;2023-04-25T07:31:42;24.50;24.82
71801;HTU21D;59647;55.838;37.292;2023-04-25T07:34:08;24.62;23.17
71801;HTU21D;59647;55.838;37.292;2023-04-25T07:36:36;24.79;24.37
71801;HTU21D;59647;55.838;37.292;2023-04-25T07:39:02;24.97;24.31
71801;HTU21D;59647;55.838;37.292;2023-04-25T07:41:28;24.95;23.82
71801;HTU21D;59647;55.838;37.292;2023-04-25T07:43:55;25.07;23.80
71801;HTU21D;59647;55.838;37.292;2023-04-25T07:46:21;25.17;22.93
71801;HTU21D;59647;55.838;37.292;2023-04-25T07:48:47;25.03;23.88
71801;HTU21D;59647;55.838;37.292;2023-04-25T07:51:13;24.63;21.95
71801;HTU21D;59647;55.838;37.292;2023-04-25T07:53:39;24.57;22.73
71801;HTU21D;59647;55.838;37.292;2023-04-25T07:56:11;24.72;22.59
71801;HTU21D;59647;55.838;37.292;2023-04-25T07:58:39;24.88;22.76
71801;HTU21D;59647;55.838;37.292;2023-04-25T08:01:09;24.69;22.41
71801;HTU21D;59647;55.838;37.292;2023-04-25T08:03:44;24.92;23.11
71801;HTU21D;59647;55.838;37.292;2023-04-25T08:06:23;25.04;22.99
71801;HTU21D;59647;55.838;37.292;2023-04-25T08:09:13;25.00;22.75
71801;HTU21D;59647;55.838;37.292;2023-04-25T08:11:41;25.27;22.13
71801;HTU21D;59647;55.838;37.292;2023-04-25T08:14:11;25.38;21.89
71801;HTU21D;59647;55.838;37.292;2023-04-25T08:16:38;25.49;21.03
71801;HTU21D;59647;55.838;37.292;2023-04-25T08:19:04;25.51;21.98
71801;HTU21D;59647;55.838;37.292;2023-04-25T08:21:30;25.37;22.10
71801;HTU21D;59647;55.838;37.292;2023-04-25T08:24:00;24.98;21.18
71801;HTU21D;59647;55.838;37.292;2023-04-25T08:26:29;24.73;22.43
71801;HTU21D;59647;55.838;37.292;2023-04-25T08:29:04;24.47;21.73
71801;HTU21D;59647;55.838;37.292;2023-04-25T08:31:31;24.32;22.50
71801;HTU21D;59647;55.838;37.292;2023-04-25T08:34:00;24.51;22.85
71801;HTU21D;59647;55.838;37.292;2023-04-25T08:36:32;24.91;22.99
71801;HTU21D;59647;55.838;37.292;2023-04-25T08:38:58;25.31;22.69
71801;HTU21D;59647;55.838;37.292;2023-04-25T08:41:25;25.50;22.17
71801;HTU21D;59647;55.838;37.292;2023-04-25T08:43:53;25.50;21.79
71801;HTU21D;59647;55.838;37.292;2023-04-25T08:46:19;25.45;21.56
71801;HTU21D;59647;55.838;37.292;2023-04-25T08:49:01;25.25;21.05
71801;HTU21D;59647;55.838;37.292;2023-04-25T08:51:31;25.08;21.84
71801;HTU21D;59647;55.838;37.292;2023-04-25T08:54:17;24.93;21.20
71801;HTU21D;59647;55.838;37.292;2023-04-25T08:56:47;24.73;21.34
71801;HTU21D;59647;55.838;37.292;2023-04-25T08:59:13;24.62;22.39
71801;HTU21D;59647;55.838;37.292;2023-04-25T09:01:41;24.49;21.77
71801;HTU21D;59647;55.838;37.292;2023-04-25T09:04:07;24.56;22.40
71801;HTU21D;59647;55.838;37.292;2023-04-25T09:06:34;24.60;22.69
71801;HTU21D;59647;55.838;37.292;2023-04-25T09:09:07;24.92;22.28
71801;HTU21D;59647;55.838;37.292;2023-04-25T09:11:35;25.21;22.85
71801;HTU21D;59647;55.838;37.292;2023-04-25T09:14:16;25.50;22.50
71801;HTU21D;59647;55.838;37.292;2023-04-25T09:17:12;25.74;22.64
71801;HTU21D;59647;55.838;37.292;2023-04-25T09:19:40;25.83;22.82
71801;HTU21D;59647;55.838;37.292;2023-04-25T09:22:15;25.79;22.17
71801;HTU21D;59647;55.838;37.292;2023-04-25T09:24:44;25.94;22.57
71801;HTU21D;59647;55.838;37.292;2023-04-25T09:27:20;26.16;22.51
71801;HTU21D;59647;55.838;37.292;2023-04-25T09:29:57;26.28;22.22
71801;HTU21D;59647;55.838;37.292;2023-04-25T09:32:31;26.46;21.05
71801;HTU21D;59647;55.838;37.292;2023-04-25T09:34:58;26.49;22.26
71801;HTU21D;59647;55.838;37.292;2023-04-25T09:37:30;26.64;21.85
71801;HTU21D;59647;55.838;37.292;2023-04-25T09:40:06;26.75;21.79
71801;HTU21D;59647;55.838;37.292;2023-04-25T09:42:46;26.84;20.89
71801;HTU21D;59647;55.838;37.292;2023-04-25T09:45:13;26.72;21.92
71801;HTU21D;59647;55.838;37.292;2023-04-25T09:47:42;26.87;21.90
71801;HTU21D;59647;55.838;37.292;2023-04-25T09:50:16;26.80;21.15
71801;HTU21D;59647;55.838;37.292;2023-04-25T09:52:44;26.93;21.83
71801;HTU21D;59647;55.838;37.292;2023-04-25T09:55:21;27.08;20.95
71801;HTU21D;59647;55.838;37.292;2023-04-25T09:57:48;26.90;19.60
71801;HTU21D;59647;55.838;37.292;2023-04-25T10:00:18;26.51;19.33
71801;HTU21D;59647;55.838;37.292;2023-04-25T10:02:46;26.05;20.19
71801;HTU21D;59647;55.838;37.292;2023-04-25T10:05:37;26.04;20.65
71801;HTU21D;59647;55.838;37.292;2023-04-25T10:08:03;26.24;20.28
71801;HTU21D;59647;55.838;37.292;2023-04-25T10:10:30;26.38;20.59
71801;HTU21D;59647;55.838;37.292;2023-04-25T10:13:05;26.49;19.60
71801;HTU21D;59647;55.838;37.292;2023-04-25T10:15:34;26.68;21.37
71801;HTU21D;59647;55.838;37.292;2023-04-25T10:18:01;26.60;19.92
71801;HTU21D;59647;55.838;37.292;2023-04-25T10:20:29;26.62;20.03
71801;HTU21D;59647;55.838;37.292;2023-04-25T10:22:59;26.73;19.90
71801;HTU21D;59647;55.838;37.292;2023-04-25T10:25:29;26.72;19.22
71801;HTU21D;59647;55.838;37.292;2023-04-25T10:27:55;26.45;20.48
71801;HTU21D;59647;55.838;37.292;2023-04-25T10:30:21;26.06;20.56
71801;HTU21D;59647;55.838;37.292;2023-04-25T10:32:46;26.07;20.39
71801;HTU21D;59647;55.838;37.292;2023-04-25T10:35:15;26.05;19.74
71801;HTU21D;59647;55.838;37.292;2023-04-25T10:38:03;25.69;20.61
71801;HTU21D;59647;55.838;37.292;2023-04-25T10:40:32;25.72;21.07
71801;HTU21D;59647;55.838;37.292;2023-04-25T10:45:57;26.32;20.86
71801;HTU21D;59647;55.838;37.292;2023-04-25T10:48:25;26.38;20.70
71801;HTU21D;59647;55.838;37.292;2023-04-25T10:51:17;26.38;19.89
71801;HTU21D;59647;55.838;37.292;2023-04-25T10:54:19;26.37;20.62
71801;HTU21D;59647;55.838;37.292;2023-04-25T10:56:40;26.37;20.50
71801;HTU21D;59647;55.838;37.292;2023-04-25T10:59:14;26.43;20.90
71801;HTU21D;59647;55.838;37.292;2023-04-25T11:01:53;26.82;20.58
71801;HTU21D;59647;55.838;37.292;2023-04-25T11:04:24;26.82;20.25
71801;HTU21D;59647;55.838;37.292;2023-04-25T11:09:29;26.60;20.33
71801;HTU21D;59647;55.838;37.292;2023-04-25T11:11:59;26.45;20.63
71801;HTU21D;59647;55.838;37.292;2023-04-25T11:14:26;26.35;21.02
71801;HTU21D;59647;55.838;37.292;2023-04-25T11:16:57;26.16;21.07
71801;HTU21D;59647;55.838;37.292;2023-04-25T11:19:24;26.03;20.82
71801;HTU21D;59647;55.838;37.292;2023-04-25T11:21:50;26.03;21.11
71801;HTU21D;59647;55.838;37.292;2023-04-25T11:24:17;25.99;19.17
71801;HTU21D;59647;55.838;37.292;2023-04-25T11:26:43;26.05;20.95
71801;HTU21D;59647;55.838;37.292;2023-04-25T11:29:13;26.32;21.10
71801;HTU21D;59647;55.838;37.292;2023-04-25T11:31:43;26.54;20.76
71801;HTU21D;59647;55.838;37.292;2023-04-25T11:34:11;26.77;20.59
71801;HTU21D;59647;55.838;37.292;2023-04-25T11:36:38;26.68;19.64
71801;HTU21D;59647;55.838;37.292;2023-04-25T11:39:04;26.73;20.42
71801;HTU21D;59647;55.838;37.292;2023-04-25T11:41:31;26.75;20.59
71801;HTU21D;59647;55.838;37.292;2023-04-25T11:43:57;26.75;19.64
71801;HTU21D;59647;55.838;37.292;2023-04-25T11:46:23;26.54;19.99
71801;HTU21D;59647;55.838;37.292;2023-04-25T11:48:49;26.36;20.02
71801;HTU21D;59647;55.838;37.292;2023-04-25T11:51:16;26.20;20.31
71801;HTU21D;59647;55.838;37.292;2023-04-25T11:53:42;26.15;20.21
71801;HTU21D;59647;55.838;37.292;2023-04-25T11:56:10;26.07;19.88
71801;HTU21D;59647;55.838;37.292;2023-04-25T11:58:59;25.87;19.36
71801;HTU21D;59647;55.838;37.292;2023-04-25T12:01:31;25.82;20.25
71801;HTU21D;59647;55.838;37.292;2023-04-25T12:03:58;25.92;20.47
71801;HTU21D;59647;55.838;37.292;2023-04-25T12:06:28;25.89;20.50
71801;HTU21D;59647;55.838;37.292;2023-04-25T12:09:04;25.99;20.44
71801;HTU21D;59647;55.838;37.292;2023-04-25T12:11:31;26.07;20.54
71801;HTU21D;59647;55.838;37.292;2023-04-25T12:14:03;26.13;20.24
71801;HTU21D;59647;55.838;37.292;2023-04-25T12:16:40;26.16;20.58
71801;HTU21D;59647;55.838;37.292;2023-04-25T12:19:07;26.32;20.60
71801;HTU21D;59647;55.838;37.292;2023-04-25T12:21:32;26.40;19.79
71801;HTU21D;59647;55.838;37.292;2023-04-25T12:24:16;26.47;19.36
71801;HTU21D;59647;55.838;37.292;2023-04-25T12:26:53;26.52;19.95
71801;HTU21D;59647;55.838;37.292;2023-04-25T12:29:23;26.60;19.99
71801;HTU21D;59647;55.838;37.292;2023-04-25T12:31:51;26.71;20.09
71801;HTU21D;59647;55.838;37.292;2023-04-25T12:34:18;26.83;20.05
71801;HTU21D;59647;55.838;37.292;2023-04-25T12:36:45;26.82;19.57
71801;HTU21D;59647;55.838;37.292;2023-04-25T12:39:18;26.71;19.66
71801;HTU21D;59647;55.838;37.292;2023-04-25T12:41:45;26.70;20.22
71801;HTU21D;59647;55.838;37.292;2023-04-25T12:44:13;26.75;20.32
71801;HTU21D;59647;55.838;37.292;2023-04-25T12:46:39;26.70;20.19
71801;HTU21D;59647;55.838;37.292;2023-04-25T12:49:07;26.69;20.05
71801;HTU21D;59647;55.838;37.292;2023-04-25T12:51:35;26.73;20.42
71801;HTU21D;59647;55.838;37.292;2023-04-25T12:54:01;26.82;20.31
71801;HTU21D;59647;55.838;37.292;2023-04-25T12:56:28;26.78;20.06
71801;HTU21D;59647;55.838;37.292;2023-04-25T12:58:54;26.69;20.22
71801;HTU21D;59647;55.838;37.292;2023-04-25T13:01:21;26.62;20.48
71801;HTU21D;59647;55.838;37.292;2023-04-25T13:03:47;26.31;20.47
71801;HTU21D;59647;55.838;37.292;2023-04-25T13:06:17;26.05;20.89
71801;HTU21D;59647;55.838;37.292;2023-04-25T13:08:43;25.97;20.99
71801;HTU21D;59647;55.838;37.292;2023-04-25T13:11:10;25.91;21.14
71801;HTU21D;59647;55.838;37.292;2023-04-25T13:13:37;25.86;21.18
71801;HTU21D;59647;55.838;37.292;2023-04-25T13:16:04;25.73;21.05
71801;HTU21D;59647;55.838;37.292;2023-04-25T13:18:30;25.69;21.37
71801;HTU21D;59647;55.838;37.292;2023-04-25T13:20:57;25.75;21.43
71801;HTU21D;59647;55.838;37.292;2023-04-25T13:23:27;25.72;21.76
71801;HTU21D;59647;55.838;37.292;2023-04-25T13:25:55;25.80;21.65
71801;HTU21D;59647;55.838;37.292;2023-04-25T13:28:27;25.87;22.88
71801;HTU21D;59647;55.838;37.292;2023-04-25T13:30:53;25.99;22.00
71801;HTU21D;59647;55.838;37.292;2023-04-25T13:33:20;26.15;21.92
71801;HTU21D;59647;55.838;37.292;2023-04-25T13:35:47;26.16;21.95
71801;HTU21D;59647;55.838;37.292;2023-04-25T13:38:21;26.08;21.81
71801;HTU21D;59647;55.838;37.292;2023-04-25T13:40:49;26.06;21.89
71801;HTU21D;59647;55.838;37.292;2023-04-25T13:43:15;26.08;21.51
71801;HTU21D;59647;55.838;37.292;2023-04-25T13:45:42;26.18;21.72
71801;HTU21D;59647;55.838;37.292;2023-04-25T13:48:08;26.05;21.55
71801;HTU21D;59647;55.838;37.292;2023-04-25T13:50:33;26.02;21.56
71801;HTU21D;59647;55.838;37.292;2023-04-25T13:52:59;25.81;21.33
71801;HTU21D;59647;55.838;37.292;2023-04-25T13:55:26;25.60;21.81
71801;HTU21D;59647;55.838;37.292;2023-04-25T13:57:52;25.59;21.80
71801;HTU21D;59647;55.838;37.292;2023-04-25T14:00:18;25.47;22.04
71801;HTU21D;59647;55.838;37.292;2023-04-25T14:02:44;25.34;22.06
71801;HTU21D;59647;55.838;37.292;2023-04-25T14:05:09;25.18;22.25
71801;HTU21D;59647;55.838;37.292;2023-04-25T14:07:36;24.76;22.14
71801;HTU21D;59647;55.838;37.292;2023-04-25T14:10:03;24.38;22.55
71801;HTU21D;59647;55.838;37.292;2023-04-25T14:12:33;24.13;22.98
71801;HTU21D;59647;55.838;37.292;2023-04-25T14:14:59;24.13;23.13
71801;HTU21D;59647;55.838;37.292;2023-04-25T14:17:25;24.17;23.31
71801;HTU21D;59647;55.838;37.292;2023-04-25T14:19:52;23.95;23.24
71801;HTU21D;59647;55.838;37.292;2023-04-25T14:22:18;23.90;23.90
71801;HTU21D;59647;55.838;37.292;2023-04-25T14:24:44;23.75;24.33
71801;HTU21D;59647;55.838;37.292;2023-04-25T14:27:10;23.73;24.16
71801;HTU21D;59647;55.838;37.292;2023-04-25T14:29:37;24.01;24.00
71801;HTU21D;59647;55.838;37.292;2023-04-25T14:32:03;24.16;24.25
71801;HTU21D;59647;55.838;37.292;2023-04-25T14:34:30;24.32;23.62
71801;HTU21D;59647;55.838;37.292;2023-04-25T14:36:56;24.27;23.74
71801;HTU21D;59647;55.838;37.292;2023-04-25T14:39:22;24.38;24.02
71801;HTU21D;59647;55.838;37.292;2023-04-25T14:41:48;24.51;23.68
71801;HTU21D;59647;55.838;37.292;2023-04-25T14:44:14;24.51;23.48
71801;HTU21D;59647;55.838;37.292;2023-04-25T14:46:40;24.45;23.37
71801;HTU21D;59647;55.838;37.292;2023-04-25T14:49:09;24.20;22.89
71801;HTU21D;59647;55.838;37.292;2023-04-25T14:51:35;23.68;23.53
71801;HTU21D;59647;55.838;37.292;2023-04-25T14:54:01;23.42;24.09
71801;HTU21D;59647;55.838;37.292;2023-04-25T14:56:27;23.35;24.11
71801;HTU21D;59647;55.838;37.292;2023-04-25T14:58:53;23.16;24.04
71801;HTU21D;59647;55.838;37.292;2023-04-25T15:01:19;23.13;24.20
71801;HTU21D;59647;55.838;37.292;2023-04-25T15:03:46;23.24;24.43
71801;HTU21D;59647;55.838;37.292;2023-04-25T15:06:13;22.97;24.43
71801;HTU21D;59647;55.838;37.292;2023-04-25T15:08:39;22.76;24.53
71801;HTU21D;59647;55.838;37.292;2023-04-25T15:11:05;22.63;24.91
71801;HTU21D;59647;55.838;37.292;2023-04-25T15:13:31;22.50;24.88
71801;HTU21D;59647;55.838;37.292;2023-04-25T15:15:58;22.50;24.87
71801;HTU21D;59647;55.838;37.292;2023-04-25T15:18:24;22.42;24.80
71801;HTU21D;59647;55.838;37.292;2023-04-25T15:20:51;22.36;25.05
71801;HTU21D;59647;55.838;37.292;2023-04-25T15:23:18;22.20;25.03
71801;HTU21D;59647;55.838;37.292;2023-04-25T15:25:45;22.13;25.10